createdAt,value
2022-08-04T00:00:10.762Z,19.04
2022-08-04T00:02:56.046Z,19.45
2022-08-04T00:05:33.235Z,19.41
2022-08-04T00:08:11.861Z,19.40
2022-08-04T00:10:40.227Z,19.27
2022-08-04T00:13:08.568Z,18.95
2022-08-04T00:15:36.563Z,19.12
2022-08-04T00:18:09.382Z,19.17
2022-08-04T00:20:39.698Z,18.85
2022-08-04T00:23:07.129Z,18.89
2022-08-04T00:25:34.303Z,18.51
2022-08-04T00:28:01.607Z,19.01
2022-08-04T00:30:28.371Z,18.79
2022-08-04T00:32:57.184Z,18.68
2022-08-04T00:35:24.623Z,18.69
2022-08-04T00:37:52.163Z,18.67
2022-08-04T00:40:33.048Z,18.89
2022-08-04T00:43:22.055Z,18.83
2022-08-04T00:46:16.684Z,18.89
2022-08-04T00:49:02.591Z,18.91
2022-08-04T00:51:41.362Z,18.81
2022-08-04T00:54:32.909Z,18.74
2022-08-04T00:57:34.025Z,18.77
2022-08-04T01:00:04.342Z,18.70
2022-08-04T01:02:58.703Z,18.63
2022-08-04T01:05:38.070Z,18.56
2022-08-04T01:08:23.340Z,18.53
2022-08-04T01:11:14.452Z,18.10
2022-08-04T01:13:43.973Z,18.42
2022-08-04T01:16:10.938Z,18.37
2022-08-04T01:18:54.103Z,18.06
2022-08-04T01:21:29.980Z,18.25
2022-08-04T01:24:30.618Z,18.21
2022-08-04T01:27:09.623Z,18.17
2022-08-04T01:29:59.076Z,17.89
2022-08-04T01:32:34.389Z,18.13
2022-08-04T01:35:22.021Z,17.87
2022-08-04T01:38:20.111Z,18.10
2022-08-04T01:40:54.143Z,17.67
2022-08-04T01:43:21.576Z,17.69
2022-08-04T01:45:57.539Z,17.87
2022-08-04T01:48:25.636Z,17.92
2022-08-04T01:50:54.430Z,17.91
2022-08-04T01:53:23.007Z,17.70
2022-08-04T01:55:55.407Z,17.44
2022-08-04T01:58:24.168Z,17.40
2022-08-04T02:01:00.826Z,17.48
2022-08-04T02:04:21.657Z,17.73
2022-08-04T02:06:18.609Z,17.68
2022-08-04T02:09:03.030Z,17.40
2022-08-04T02:11:30.320Z,17.66
2022-08-04T02:14:21.315Z,17.61
2022-08-04T02:16:52.667Z,17.15
2022-08-04T02:19:47.616Z,17.50
2022-08-04T02:22:19.414Z,16.89
2022-08-04T02:24:49.547Z,17.38
2022-08-04T02:27:19.306Z,17.23
2022-08-04T02:29:54.388Z,17.15
2022-08-04T02:32:26.487Z,17.37
2022-08-04T02:35:07.666Z,16.77
2022-08-04T02:37:35.927Z,16.26
2022-08-04T02:40:06.328Z,16.70
2022-08-04T02:42:33.910Z,17.20
2022-08-04T02:45:01.050Z,17.04
2022-08-04T02:48:29.085Z,16.85
2022-08-04T02:50:28.434Z,17.12
2022-08-04T02:53:00.443Z,16.67
2022-08-04T02:55:29.370Z,16.67
2022-08-04T02:57:58.571Z,16.75
2022-08-04T03:00:26.466Z,16.57
2022-08-04T03:03:08.631Z,17.10
2022-08-04T03:06:01.391Z,16.94
2022-08-04T03:08:50.205Z,16.87
2022-08-04T03:11:47.392Z,16.82
2022-08-04T03:14:39.449Z,16.43
2022-08-04T03:17:53.072Z,16.75
2022-08-04T03:20:57.821Z,16.77
2022-08-04T03:24:09.092Z,16.77
2022-08-04T03:26:38.659Z,16.73
2022-08-04T03:29:51.886Z,16.70
2022-08-04T03:32:27.876Z,16.71
2022-08-04T03:35:22.931Z,16.67
2022-08-04T03:38:08.914Z,16.62
2022-08-04T03:41:13.246Z,16.62
2022-08-04T03:44:04.617Z,16.58
2022-08-04T03:46:46.475Z,16.58
2022-08-04T03:49:28.345Z,16.50
2022-08-04T03:51:57.934Z,16.49
2022-08-04T03:55:09.571Z,16.51
2022-08-04T03:57:45.382Z,16.51
2022-08-04T04:00:18.965Z,16.44
2022-08-04T04:03:28.262Z,16.45
2022-08-04T04:06:54.064Z,16.41
2022-08-04T04:09:56.777Z,16.38
2022-08-04T04:12:31.624Z,16.37
2022-08-04T04:15:01.096Z,16.49
2022-08-04T04:17:48.953Z,16.68
2022-08-04T04:20:43.470Z,16.63
2022-08-04T04:23:40.833Z,16.97
2022-08-04T04:26:42.164Z,17.11
2022-08-04T04:29:29.913Z,17.32
2022-08-04T04:32:25.648Z,17.18
2022-08-04T04:35:15.117Z,17.08
2022-08-04T04:37:50.775Z,17.05
2022-08-04T04:40:55.262Z,17.11
2022-08-04T04:43:51.708Z,17.17
2022-08-04T04:47:02.519Z,17.38
2022-08-04T04:49:36.352Z,17.35
2022-08-04T04:52:28.420Z,17.70
2022-08-04T04:55:17.571Z,17.68
2022-08-04T04:57:53.548Z,17.33
2022-08-04T05:00:26.244Z,17.26
2022-08-04T05:03:21.079Z,17.62
2022-08-04T05:06:12.306Z,17.71
2022-08-04T05:08:51.236Z,17.79
2022-08-04T05:11:52.484Z,17.94
2022-08-04T05:14:41.097Z,17.82
2022-08-04T05:17:32.926Z,18.08
2022-08-04T05:20:05.486Z,18.43
2022-08-04T05:22:43.296Z,18.23
2022-08-04T05:25:33.926Z,18.26
2022-08-04T05:28:12.252Z,18.86
2022-08-04T05:30:41.613Z,18.94
2022-08-04T05:33:12.554Z,19.37
2022-08-04T05:36:16.422Z,19.49
2022-08-04T05:38:39.395Z,19.91
2022-08-04T05:41:08.679Z,20.32
2022-08-04T05:43:38.164Z,20.57
2022-08-04T05:46:05.516Z,19.95
2022-08-04T05:48:33.915Z,19.94
2022-08-04T05:51:03.071Z,19.92
2022-08-04T05:53:31.489Z,19.68
2022-08-04T05:56:00.133Z,19.99
2022-08-04T05:58:29.804Z,20.42
2022-08-04T06:00:58.624Z,20.77
2022-08-04T06:03:27.181Z,20.82
2022-08-04T06:05:54.710Z,20.99
2022-08-04T06:08:21.400Z,20.89
2022-08-04T06:10:50.614Z,21.13
2022-08-04T06:13:47.760Z,21.37
2022-08-04T06:16:17.953Z,20.84
2022-08-04T06:19:59.652Z,21.06
2022-08-04T06:21:48.916Z,21.32
2022-08-04T06:24:19.596Z,21.21
2022-08-04T06:26:49.336Z,21.39
2022-08-04T06:29:19.118Z,21.98
2022-08-04T06:32:29.559Z,21.69
2022-08-04T06:34:35.724Z,21.86
2022-08-04T06:37:03.213Z,22.41
2022-08-04T06:39:32.556Z,22.28
2022-08-04T06:42:21.369Z,22.63
2022-08-04T06:44:51.603Z,23.37
2022-08-04T06:47:19.998Z,23.55
2022-08-04T06:51:24.571Z,23.32
2022-08-04T06:52:37.783Z,23.06
2022-08-04T06:55:06.636Z,23.22
2022-08-04T06:57:35.356Z,23.65
2022-08-04T07:00:06.768Z,23.94
2022-08-04T07:02:42.422Z,23.49
2022-08-04T07:05:10.510Z,23.22
2022-08-04T07:07:57.293Z,22.91
2022-08-04T07:10:28.827Z,22.76
2022-08-04T07:12:57.287Z,24.23
2022-08-04T07:15:25.097Z,24.19
2022-08-04T07:17:52.967Z,23.43
2022-08-04T07:20:33.823Z,24.39
2022-08-04T07:23:06.525Z,24.23
2022-08-04T07:26:01.124Z,24.85
2022-08-04T07:28:24.023Z,25.14
2022-08-04T07:30:52.472Z,25.24
2022-08-04T07:33:21.113Z,24.74
2022-08-04T07:36:09.786Z,25.72
2022-08-04T07:38:50.655Z,25.48
2022-08-04T07:41:39.680Z,26.38
2022-08-04T07:44:07.566Z,24.91
2022-08-04T07:46:34.715Z,25.85
2022-08-04T07:49:01.573Z,26.21
2022-08-04T07:51:30.244Z,26.61
2022-08-04T07:53:58.433Z,26.76
2022-08-04T07:56:26.387Z,26.87
2022-08-04T07:58:53.281Z,26.44
2022-08-04T08:01:20.678Z,26.33
2022-08-04T08:03:48.834Z,26.29
2022-08-04T08:06:31.393Z,26.80
2022-08-04T08:09:00.442Z,26.35
2022-08-04T08:12:36.637Z,25.78
2022-08-04T08:14:27.230Z,27.77
2022-08-04T08:16:53.952Z,27.80
2022-08-04T08:19:21.023Z,28.08
2022-08-04T08:21:59.606Z,28.37
2022-08-04T08:24:34.747Z,27.82
2022-08-04T08:27:02.592Z,28.17
2022-08-04T08:29:29.910Z,28.78
2022-08-04T08:32:00.425Z,29.09
2022-08-04T08:34:32.965Z,29.24
2022-08-04T08:37:09.782Z,29.12
2022-08-04T08:39:58.173Z,28.66
2022-08-04T08:42:24.899Z,29.97
2022-08-04T08:45:17.652Z,29.94
2022-08-04T08:48:07.094Z,29.71
2022-08-04T08:50:54.299Z,29.96
2022-08-04T08:53:36.205Z,30.09
2022-08-04T08:56:31.852Z,29.97
2022-08-04T08:59:27.571Z,31.16
2022-08-04T09:02:12.645Z,31.21
2022-08-04T09:04:57.542Z,31.30
2022-08-04T09:08:00.871Z,31.69
2022-08-04T09:10:44.045Z,31.68
2022-08-04T09:13:25.885Z,31.32
2022-08-04T09:16:16.056Z,31.91
2022-08-04T09:19:22.704Z,32.20
2022-08-04T09:22:19.903Z,31.98
2022-08-04T09:25:05.291Z,32.09
2022-08-04T09:31:13.742Z,32.34
2022-08-04T09:33:51.061Z,31.87
2022-08-04T09:36:44.075Z,32.01
2022-08-04T09:39:37.043Z,32.25
2022-08-04T09:42:07.892Z,32.47
2022-08-04T09:45:07.889Z,32.45
2022-08-04T09:48:03.741Z,32.42
2022-08-04T09:50:50.064Z,32.53
2022-08-04T09:53:27.027Z,32.52
2022-08-04T09:56:15.027Z,32.69
2022-08-04T09:59:16.998Z,32.57
2022-08-04T10:02:03.122Z,32.07
2022-08-04T10:05:00.123Z,32.62
2022-08-04T10:07:38.429Z,32.92
2022-08-04T10:10:27.582Z,33.03
2022-08-04T10:13:44.606Z,32.90
2022-08-04T10:16:45.846Z,33.20
2022-08-04T10:19:32.786Z,33.34
2022-08-04T10:22:40.800Z,33.54
2022-08-04T10:26:07.393Z,33.49
2022-08-04T10:28:49.534Z,33.56
2022-08-04T10:31:22.702Z,32.01
2022-08-04T10:33:54.707Z,33.38
2022-08-04T10:36:27.316Z,33.90
2022-08-04T10:39:04.510Z,30.63
2022-08-04T10:41:56.453Z,34.01
2022-08-04T10:45:15.825Z,34.20
2022-08-04T10:47:53.344Z,33.74
2022-08-04T10:50:23.705Z,33.56
2022-08-04T10:53:01.012Z,34.04
2022-08-04T10:56:07.612Z,34.36
2022-08-04T10:58:47.424Z,34.28
2022-08-04T11:01:59.394Z,33.60
2022-08-04T11:04:26.605Z,33.90
2022-08-04T11:06:55.362Z,33.76
2022-08-04T11:09:22.842Z,33.55
2022-08-04T11:11:57.127Z,33.06
2022-08-04T11:14:37.651Z,32.97
2022-08-04T11:17:11.193Z,33.49
2022-08-04T11:20:33.671Z,33.47
2022-08-04T11:23:03.831Z,33.60
2022-08-04T11:25:36.459Z,32.50
2022-08-04T11:28:19.028Z,33.37
2022-08-04T11:31:01.407Z,34.25
2022-08-04T11:33:46.974Z,34.48
2022-08-04T11:36:32.203Z,34.54
2022-08-04T11:39:14.792Z,34.65
2022-08-04T11:42:06.509Z,34.34
2022-08-04T11:44:56.311Z,34.37
2022-08-04T11:47:30.861Z,33.82
2022-08-04T11:50:07.083Z,33.47
2022-08-04T11:52:36.278Z,33.22
2022-08-04T11:55:20.278Z,34.28
2022-08-04T11:58:07.656Z,34.67
2022-08-04T12:00:43.135Z,34.79
2022-08-04T12:03:40.085Z,34.76
2022-08-04T12:06:23.162Z,34.79
2022-08-04T12:09:11.669Z,34.77
2022-08-04T12:11:51.222Z,34.63
2022-08-04T12:14:27.914Z,35.08
2022-08-04T12:17:03.400Z,34.71
2022-08-04T12:20:03.491Z,34.25
2022-08-04T12:22:32.365Z,33.13
2022-08-04T12:25:10.123Z,34.44
2022-08-04T12:27:47.707Z,34.89
2022-08-04T12:30:59.875Z,35.18
2022-08-04T12:33:20.561Z,35.31
2022-08-04T12:36:10.837Z,35.33
2022-08-04T12:38:47.247Z,34.81
2022-08-04T12:41:19.544Z,34.63
2022-08-04T12:43:46.657Z,34.35
2022-08-04T12:46:24.735Z,33.71
2022-08-04T12:48:52.270Z,34.66
2022-08-04T12:51:30.893Z,32.63
2022-08-04T12:54:08.467Z,34.62
2022-08-04T12:56:36.204Z,34.32
2022-08-04T12:59:12.692Z,34.18
2022-08-04T13:02:08.098Z,33.07
2022-08-04T13:04:34.175Z,33.79
2022-08-04T13:07:20.177Z,34.60
2022-08-04T13:09:48.303Z,35.11
2022-08-04T13:12:17.475Z,35.14
2022-08-04T13:14:47.072Z,34.98
2022-08-04T13:17:14.443Z,34.96
2022-08-04T13:19:47.827Z,34.75
2022-08-04T13:22:28.936Z,34.19
2022-08-04T13:26:40.186Z,34.58
2022-08-04T13:27:48.262Z,33.70
2022-08-04T13:30:23.041Z,34.00
2022-08-04T13:33:03.213Z,33.93
2022-08-04T13:35:54.758Z,34.11
2022-08-04T13:38:18.838Z,33.57
2022-08-04T13:40:48.258Z,34.31
2022-08-04T13:44:16.892Z,33.41
2022-08-04T13:46:27.205Z,34.07
2022-08-04T13:49:27.956Z,34.54
2022-08-04T13:51:58.034Z,34.74
2022-08-04T13:54:46.843Z,34.76
2022-08-04T13:57:27.905Z,34.57
2022-08-04T14:00:00.090Z,34.88
2022-08-04T14:02:44.860Z,35.15
2022-08-04T14:05:27.489Z,34.46
2022-08-04T14:08:05.523Z,35.07
2022-08-04T14:10:33.286Z,34.70
2022-08-04T14:13:00.754Z,31.50
2022-08-04T14:15:54.827Z,34.89
2022-08-04T14:18:29.874Z,33.65
2022-08-04T14:21:13.759Z,34.20
2022-08-04T14:23:56.614Z,34.39
2022-08-04T14:26:32.431Z,34.23
2022-08-04T14:29:28.723Z,34.49
2022-08-04T14:32:14.326Z,34.13
2022-08-04T14:34:45.341Z,34.35
2022-08-04T14:37:19.658Z,34.16
2022-08-04T14:40:17.332Z,33.65
2022-08-04T14:42:54.597Z,32.84
2022-08-04T14:45:33.650Z,33.64
2022-08-04T14:48:02.475Z,33.44
2022-08-04T14:50:41.418Z,33.72
2022-08-04T14:53:12.365Z,33.66
2022-08-04T14:55:43.840Z,34.22
2022-08-04T14:58:32.838Z,33.86
2022-08-04T15:01:09.848Z,34.15
2022-08-04T15:03:49.618Z,34.42
2022-08-04T15:06:22.252Z,34.04
2022-08-04T15:08:53.260Z,34.25
2022-08-04T15:11:23.150Z,33.77
2022-08-04T15:13:50.809Z,32.68
2022-08-04T15:16:17.519Z,33.76
2022-08-04T15:18:49.170Z,32.07
2022-08-04T15:21:17.141Z,33.68
2022-08-04T15:23:44.591Z,34.10
2022-08-04T15:26:19.433Z,34.19
2022-08-04T15:28:54.686Z,33.59
2022-08-04T15:32:05.880Z,34.03
2022-08-04T15:34:11.637Z,33.90
2022-08-04T15:36:56.652Z,34.22
2022-08-04T15:39:51.675Z,34.00
2022-08-04T15:42:31.042Z,33.30
2022-08-04T15:46:26.485Z,33.40
2022-08-04T15:48:19.464Z,34.13
2022-08-04T15:50:58.464Z,34.28
2022-08-04T15:54:01.218Z,34.22
2022-08-04T15:57:01.247Z,34.26
2022-08-04T15:59:57.820Z,34.30
2022-08-04T16:02:33.960Z,34.50
2022-08-04T16:05:18.494Z,34.64
2022-08-04T16:08:12.365Z,34.81
2022-08-04T16:10:44.384Z,35.06
2022-08-04T16:13:16.537Z,34.60
2022-08-04T16:16:03.367Z,33.53
2022-08-04T16:18:41.852Z,34.81
2022-08-04T16:21:32.765Z,34.50
2022-08-04T16:24:37.320Z,34.07
2022-08-04T16:27:12.183Z,33.68
2022-08-04T16:29:41.760Z,33.16
2022-08-04T16:32:22.792Z,34.24
2022-08-04T16:34:57.695Z,34.00
2022-08-04T16:37:36.485Z,34.07
2022-08-04T16:40:37.103Z,34.80
2022-08-04T16:43:09.513Z,35.00
2022-08-04T16:45:48.304Z,34.55
2022-08-04T16:48:18.492Z,34.22
2022-08-04T16:50:54.653Z,34.71
2022-08-04T16:53:53.205Z,35.25
2022-08-04T16:56:33.118Z,35.30
2022-08-04T16:59:06.520Z,35.33
2022-08-04T17:01:34.485Z,34.99
2022-08-04T17:04:03.570Z,34.62
2022-08-04T17:06:41.019Z,33.39
2022-08-04T17:09:19.322Z,35.17
2022-08-04T17:11:47.749Z,33.40
2022-08-04T17:14:22.391Z,34.32
2022-08-04T17:16:53.634Z,33.77
2022-08-04T17:19:25.391Z,33.54
2022-08-04T17:22:10.419Z,34.70
2022-08-04T17:24:39.663Z,35.18
2022-08-04T17:28:09.316Z,35.17
2022-08-04T17:29:54.402Z,34.60
2022-08-04T17:32:22.624Z,34.70
2022-08-04T17:34:57.523Z,34.89
2022-08-04T17:40:18.001Z,34.22
2022-08-04T17:42:45.822Z,33.83
2022-08-04T17:45:50.882Z,33.01
2022-08-04T17:48:08.220Z,33.42
2022-08-04T17:50:35.133Z,32.61
2022-08-04T17:53:11.164Z,32.75
2022-08-04T17:55:44.627Z,32.89
2022-08-04T17:58:22.441Z,32.36
2022-08-04T18:01:23.245Z,31.28
2022-08-04T18:03:56.455Z,30.41
2022-08-04T18:06:25.532Z,32.04
2022-08-04T18:08:58.150Z,29.79
2022-08-04T18:11:29.778Z,31.25
2022-08-04T18:14:09.992Z,30.87
2022-08-04T18:16:44.705Z,30.52
2022-08-04T18:19:13.449Z,29.96
2022-08-04T18:21:46.009Z,29.94
2022-08-04T18:24:35.148Z,29.99
2022-08-04T18:27:19.618Z,29.38
2022-08-04T18:30:14.698Z,29.18
2022-08-04T18:32:34.162Z,29.35
2022-08-04T18:35:05.727Z,28.51
2022-08-04T18:38:05.234Z,29.05
2022-08-04T18:40:35.298Z,28.75
2022-08-04T18:43:08.659Z,28.64
2022-08-04T18:45:41.246Z,28.61
2022-08-04T18:48:18.241Z,28.42
2022-08-04T18:51:09.042Z,28.92
2022-08-04T18:53:34.871Z,28.48
2022-08-04T18:56:01.824Z,28.36
2022-08-04T18:58:28.585Z,28.28
2022-08-04T19:00:56.221Z,28.03
2022-08-04T19:03:30.558Z,27.05
2022-08-04T19:06:02.460Z,27.75
2022-08-04T19:08:42.029Z,28.17
2022-08-04T19:11:38.447Z,28.12
2022-08-04T19:13:58.504Z,28.27
2022-08-04T19:16:30.269Z,28.47
2022-08-04T19:18:58.234Z,27.26
2022-08-04T19:21:58.640Z,27.80
2022-08-04T19:24:32.129Z,27.86
2022-08-04T19:26:59.069Z,27.62
2022-08-04T19:29:25.739Z,27.78
2022-08-04T19:32:13.755Z,27.96
2022-08-04T19:34:46.055Z,27.06
2022-08-04T19:37:57.125Z,27.84
2022-08-04T19:40:02.405Z,27.18
2022-08-04T19:42:31.254Z,25.67
2022-08-04T19:44:57.936Z,27.27
2022-08-04T19:48:17.316Z,26.87
2022-08-04T19:50:13.742Z,27.16
2022-08-04T19:52:51.550Z,27.37
2022-08-04T19:55:22.224Z,25.05
2022-08-04T19:57:51.064Z,26.05
2022-08-04T20:00:33.080Z,27.03
2022-08-04T20:03:14.328Z,23.47
2022-08-04T20:08:34.223Z,24.61
2022-08-04T20:11:03.163Z,26.01
2022-08-04T20:13:37.311Z,26.55
2022-08-04T20:16:28.710Z,26.38
2022-08-04T20:21:55.400Z,26.31
2022-08-04T20:24:39.288Z,26.38
2022-08-04T20:27:21.592Z,26.04
2022-08-04T20:29:56.837Z,26.02
2022-08-04T20:32:34.532Z,26.35
2022-08-04T20:35:16.633Z,25.04
2022-08-04T20:40:38.939Z,22.43
2022-08-04T20:43:06.096Z,25.36
2022-08-04T20:45:56.889Z,24.28
2022-08-04T20:48:22.260Z,24.76
2022-08-04T20:50:52.504Z,23.16
2022-08-04T20:53:19.107Z,24.96
2022-08-04T20:55:59.501Z,24.75
2022-08-04T20:58:27.537Z,24.87
2022-08-04T21:00:55.399Z,24.29
2022-08-04T21:03:49.701Z,24.47
2022-08-04T21:06:09.252Z,24.46
2022-08-04T21:08:37.137Z,23.63
2022-08-04T21:11:04.321Z,24.13
2022-08-04T21:13:50.736Z,22.73
2022-08-04T21:16:53.778Z,23.23
2022-08-04T21:19:13.153Z,24.99
2022-08-04T21:21:46.139Z,24.09
2022-08-04T21:24:26.180Z,24.51
2022-08-04T21:26:57.867Z,24.71
2022-08-04T21:29:34.911Z,24.66
2022-08-04T21:32:04.582Z,22.60
2022-08-04T21:34:38.504Z,24.20
2022-08-04T21:37:09.354Z,22.68
2022-08-04T21:39:50.060Z,22.20
2022-08-04T21:42:42.297Z,24.76
2022-08-04T21:45:06.989Z,24.49
2022-08-04T21:47:46.614Z,23.34
2022-08-04T21:50:19.750Z,22.88
2022-08-04T21:56:04.634Z,22.53
2022-08-04T21:58:17.674Z,23.87
2022-08-04T22:00:55.830Z,23.97
2022-08-04T22:03:53.611Z,22.32
2022-08-04T22:06:17.586Z,23.87
2022-08-04T22:08:49.093Z,23.63
2022-08-04T22:11:48.726Z,24.28
2022-08-04T22:14:27.287Z,24.12
2022-08-04T22:16:55.985Z,23.00
2022-08-04T22:19:39.576Z,23.99
2022-08-04T22:22:13.680Z,23.75
2022-08-04T22:24:53.586Z,23.89
2022-08-04T22:27:22.732Z,23.17
2022-08-04T22:29:49.641Z,23.84
2022-08-04T22:32:16.257Z,23.54
2022-08-04T22:34:45.488Z,22.43
2022-08-04T22:37:12.749Z,23.88
2022-08-04T22:39:56.419Z,23.62
2022-08-04T22:42:24.023Z,23.70
2022-08-04T22:44:51.105Z,23.43
2022-08-04T22:47:20.213Z,23.24
2022-08-04T22:50:01.695Z,23.21
2022-08-04T22:52:36.689Z,22.88
2022-08-04T22:55:22.305Z,22.58
2022-08-04T22:58:05.316Z,22.37
2022-08-04T23:00:35.973Z,22.98
2022-08-04T23:03:06.787Z,23.19
2022-08-04T23:05:37.932Z,22.83
2022-08-04T23:08:05.342Z,22.74
2022-08-04T23:10:33.294Z,22.73
2022-08-04T23:13:04.190Z,22.66
2022-08-04T23:15:33.887Z,22.61
2022-08-04T23:18:00.761Z,22.74
2022-08-04T23:20:33.019Z,22.09
2022-08-04T23:23:15.003Z,21.96
2022-08-04T23:26:07.274Z,22.75
2022-08-04T23:28:31.154Z,22.51
2022-08-04T23:30:57.700Z,22.49
2022-08-04T23:33:24.947Z,22.57
2022-08-04T23:36:12.047Z,22.69
2022-08-04T23:38:39.320Z,22.54
2022-08-04T23:41:13.868Z,22.88
2022-08-04T23:43:55.533Z,22.56
2022-08-04T23:46:50.857Z,22.43
2022-08-04T23:53:09.730Z,22.24
2022-08-04T23:55:45.477Z,22.28
2022-08-04T23:58:19.085Z,22.09
